.
Local / CommonContents

Fort Wayne - NE Ind.
U N D E R   C O N S T R U C T I O N

Northern Indiana (IWX) Radar

Latest IWX NEXRAD
Base Reflectivity



Latest IWX NEXRAD
Base Velocity

Indiana-Ohio Visible Satellite

For infrared and water vapor imagery, see Great Lakes - Midwest.

Current Conditions

Recent report from the Fort Wayne International Airport

Feb 22, 2018 - 07:54 PM EST / 2018.02.23 0054 UTC


The skies are overcast. The temperature is 36.0 F (2.2 C) and the dew point is 33.1 F (0.6 C), giving a relative humidity of 89%. The barometric pressure is 30.42 in. Hg (1030 hPa). The wind is from the E (080 degrees) at 23 MPH (20 KT), and the visibility is 10 mile(s).

KFWA 230054Z 08020KT 10SM OVC008 02/01 A3042 RMK AO2 PK WND 08026/0042 SLP310 T00220006
CoCoRaHS
IN-AL-39
A2 Web Hosting
Creative Commons License
GoDaddy
Look for:

loaded 2018-02-22 20:20:13 • last modified 2015-05-28 14:58:18
Privacy PolicyDisclaimer
• wx.awcolley.com is powered by PmWiki v.2002016 •
• all content (unless otherwise noted) © 2018 A W Colley